sensor_id;sensor_type;location;lat;lon;timestamp;P1;durP1;ratioP1;P2;durP2;ratioP2
65535;SDS011;52145;49.342;9.116;2022-08-03T00:01:33;1.80;;;1.40;;
65535;SDS011;52145;49.342;9.116;2022-08-03T00:03:59;4.28;;;1.95;;
65535;SDS011;52145;49.342;9.116;2022-08-03T00:06:24;4.32;;;1.95;;
65535;SDS011;52145;49.342;9.116;2022-08-03T00:08:50;3.78;;;2.05;;
65535;SDS011;52145;49.342;9.116;2022-08-03T00:11:16;4.22;;;2.00;;
65535;SDS011;52145;49.342;9.116;2022-08-03T00:13:42;2.72;;;1.90;;
65535;SDS011;52145;49.342;9.116;2022-08-03T00:16:08;3.22;;;1.98;;
65535;SDS011;52145;49.342;9.116;2022-08-03T00:18:34;3.17;;;1.73;;
65535;SDS011;52145;49.342;9.116;2022-08-03T00:21:00;3.65;;;2.17;;
65535;SDS011;52145;49.342;9.116;2022-08-03T00:23:26;2.17;;;1.77;;
65535;SDS011;52145;49.342;9.116;2022-08-03T00:25:51;4.90;;;1.98;;
65535;SDS011;52145;49.342;9.116;2022-08-03T00:28:17;3.70;;;1.90;;
65535;SDS011;52145;49.342;9.116;2022-08-03T00:30:43;2.30;;;1.83;;
65535;SDS011;52145;49.342;9.116;2022-08-03T00:33:08;3.17;;;1.67;;
65535;SDS011;52145;49.342;9.116;2022-08-03T00:35:34;5.97;;;2.25;;
65535;SDS011;52145;49.342;9.116;2022-08-03T00:38:00;3.03;;;2.00;;
65535;SDS011;52145;49.342;9.116;2022-08-03T00:40:26;2.10;;;1.77;;
65535;SDS011;52145;49.342;9.116;2022-08-03T00:42:55;2.40;;;1.90;;
65535;SDS011;52145;49.342;9.116;2022-08-03T00:45:23;2.33;;;1.73;;
65535;SDS011;52145;49.342;9.116;2022-08-03T00:47:50;3.95;;;2.08;;
65535;SDS011;52145;49.342;9.116;2022-08-03T00:50:16;4.65;;;2.38;;
65535;SDS011;52145;49.342;9.116;2022-08-03T00:52:43;3.53;;;2.20;;
65535;SDS011;52145;49.342;9.116;2022-08-03T00:55:09;2.53;;;1.80;;
65535;SDS011;52145;49.342;9.116;2022-08-03T00:57:36;2.75;;;2.00;;
65535;SDS011;52145;49.342;9.116;2022-08-03T01:00:03;2.88;;;1.95;;
65535;SDS011;52145;49.342;9.116;2022-08-03T01:02:29;4.72;;;2.58;;
65535;SDS011;52145;49.342;9.116;2022-08-03T01:04:55;4.38;;;2.20;;
65535;SDS011;52145;49.342;9.116;2022-08-03T01:10:05;5.25;;;2.35;;
65535;SDS011;52145;49.342;9.116;2022-08-03T01:12:38;4.63;;;2.15;;
65535;SDS011;52145;49.342;9.116;2022-08-03T01:15:37;4.53;;;2.10;;
65535;SDS011;52145;49.342;9.116;2022-08-03T01:21:11;3.33;;;2.20;;
65535;SDS011;52145;49.342;9.116;2022-08-03T01:26:36;3.85;;;2.10;;
65535;SDS011;52145;49.342;9.116;2022-08-03T01:32:00;2.90;;;2.05;;
65535;SDS011;52145;49.342;9.116;2022-08-03T01:34:30;2.97;;;2.13;;
65535;SDS011;52145;49.342;9.116;2022-08-03T01:36:58;3.58;;;2.40;;
65535;SDS011;52145;49.342;9.116;2022-08-03T01:39:27;5.40;;;2.00;;
65535;SDS011;52145;49.342;9.116;2022-08-03T01:41:55;4.22;;;2.00;;
65535;SDS011;52145;49.342;9.116;2022-08-03T01:44:23;3.50;;;2.00;;
65535;SDS011;52145;49.342;9.116;2022-08-03T01:46:53;5.10;;;2.42;;
65535;SDS011;52145;49.342;9.116;2022-08-03T01:49:22;4.28;;;2.15;;
65535;SDS011;52145;49.342;9.116;2022-08-03T01:51:49;3.40;;;2.22;;
65535;SDS011;52145;49.342;9.116;2022-08-03T01:54:16;5.90;;;2.35;;
65535;SDS011;52145;49.342;9.116;2022-08-03T01:56:43;4.43;;;2.10;;
65535;SDS011;52145;49.342;9.116;2022-08-03T01:59:10;3.35;;;2.20;;
65535;SDS011;52145;49.342;9.116;2022-08-03T02:01:38;6.43;;;2.20;;
65535;SDS011;52145;49.342;9.116;2022-08-03T02:04:05;2.45;;;2.00;;
65535;SDS011;52145;49.342;9.116;2022-08-03T02:06:32;3.58;;;2.00;;
65535;SDS011;52145;49.342;9.116;2022-08-03T02:08:59;3.25;;;2.33;;
65535;SDS011;52145;49.342;9.116;2022-08-03T02:11:27;4.20;;;2.10;;
65535;SDS011;52145;49.342;9.116;2022-08-03T02:13:57;3.05;;;2.33;;
65535;SDS011;52145;49.342;9.116;2022-08-03T02:16:24;3.95;;;2.60;;
65535;SDS011;52145;49.342;9.116;2022-08-03T02:18:51;3.78;;;1.88;;
65535;SDS011;52145;49.342;9.116;2022-08-03T02:21:19;5.15;;;2.63;;
65535;SDS011;52145;49.342;9.116;2022-08-03T02:23:46;2.67;;;1.92;;
65535;SDS011;52145;49.342;9.116;2022-08-03T02:26:13;2.60;;;2.10;;
65535;SDS011;52145;49.342;9.116;2022-08-03T02:28:42;3.60;;;2.00;;
65535;SDS011;52145;49.342;9.116;2022-08-03T02:31:15;3.30;;;2.35;;
65535;SDS011;52145;49.342;9.116;2022-08-03T02:33:51;5.13;;;2.10;;
65535;SDS011;52145;49.342;9.116;2022-08-03T02:36:21;3.97;;;2.08;;
65535;SDS011;52145;49.342;9.116;2022-08-03T02:38:51;4.18;;;2.28;;
65535;SDS011;52145;49.342;9.116;2022-08-03T02:41:20;3.88;;;2.20;;
65535;SDS011;52145;49.342;9.116;2022-08-03T02:43:48;3.17;;;2.03;;
65535;SDS011;52145;49.342;9.116;2022-08-03T02:46:19;5.28;;;2.17;;
65535;SDS011;52145;49.342;9.116;2022-08-03T02:48:55;5.32;;;2.17;;
65535;SDS011;52145;49.342;9.116;2022-08-03T02:51:23;4.90;;;2.00;;
65535;SDS011;52145;49.342;9.116;2022-08-03T02:53:50;4.80;;;2.20;;
65535;SDS011;52145;49.342;9.116;2022-08-03T02:56:18;3.20;;;1.67;;
65535;SDS011;52145;49.342;9.116;2022-08-03T02:58:44;3.08;;;2.13;;
65535;SDS011;52145;49.342;9.116;2022-08-03T03:01:13;3.70;;;2.28;;
65535;SDS011;52145;49.342;9.116;2022-08-03T03:03:40;2.53;;;2.00;;
65535;SDS011;52145;49.342;9.116;2022-08-03T03:06:06;3.30;;;2.40;;
65535;SDS011;52145;49.342;9.116;2022-08-03T03:08:33;2.63;;;2.05;;
65535;SDS011;52145;49.342;9.116;2022-08-03T03:10:59;4.53;;;2.10;;
65535;SDS011;52145;49.342;9.116;2022-08-03T03:13:29;2.97;;;2.10;;
65535;SDS011;52145;49.342;9.116;2022-08-03T03:15:56;4.30;;;2.65;;
65535;SDS011;52145;49.342;9.116;2022-08-03T03:18:26;2.83;;;2.25;;
65535;SDS011;52145;49.342;9.116;2022-08-03T03:20:52;3.42;;;2.40;;
65535;SDS011;52145;49.342;9.116;2022-08-03T03:23:19;3.42;;;2.00;;
65535;SDS011;52145;49.342;9.116;2022-08-03T03:25:46;5.65;;;2.03;;
65535;SDS011;52145;49.342;9.116;2022-08-03T03:28:13;4.15;;;2.17;;
65535;SDS011;52145;49.342;9.116;2022-08-03T03:30:39;4.90;;;2.55;;
65535;SDS011;52145;49.342;9.116;2022-08-03T03:33:04;4.18;;;2.13;;
65535;SDS011;52145;49.342;9.116;2022-08-03T03:35:31;4.22;;;2.13;;
65535;SDS011;52145;49.342;9.116;2022-08-03T03:37:57;5.20;;;2.60;;
65535;SDS011;52145;49.342;9.116;2022-08-03T03:40:22;5.22;;;2.38;;
65535;SDS011;52145;49.342;9.116;2022-08-03T03:42:49;3.08;;;2.53;;
65535;SDS011;52145;49.342;9.116;2022-08-03T03:45:14;5.82;;;3.30;;
65535;SDS011;52145;49.342;9.116;2022-08-03T03:47:40;2.70;;;2.10;;
65535;SDS011;52145;49.342;9.116;2022-08-03T03:50:06;3.30;;;2.33;;
65535;SDS011;52145;49.342;9.116;2022-08-03T03:52:32;3.50;;;2.33;;
65535;SDS011;52145;49.342;9.116;2022-08-03T03:54:58;6.10;;;2.42;;
65535;SDS011;52145;49.342;9.116;2022-08-03T03:57:24;4.35;;;2.28;;
65535;SDS011;52145;49.342;9.116;2022-08-03T03:59:50;3.58;;;2.30;;
65535;SDS011;52145;49.342;9.116;2022-08-03T04:02:15;5.00;;;2.17;;
65535;SDS011;52145;49.342;9.116;2022-08-03T04:04:41;2.75;;;2.13;;
65535;SDS011;52145;49.342;9.116;2022-08-03T04:07:25;4.30;;;2.50;;
65535;SDS011;52145;49.342;9.116;2022-08-03T04:10:17;3.00;;;1.93;;
65535;SDS011;52145;49.342;9.116;2022-08-03T04:13:06;4.40;;;2.50;;
65535;SDS011;52145;49.342;9.116;2022-08-03T04:15:34;3.42;;;2.60;;
65535;SDS011;52145;49.342;9.116;2022-08-03T04:18:03;4.68;;;2.33;;
65535;SDS011;52145;49.342;9.116;2022-08-03T04:20:31;3.25;;;2.25;;
65535;SDS011;52145;49.342;9.116;2022-08-03T04:23:01;2.58;;;1.90;;
65535;SDS011;52145;49.342;9.116;2022-08-03T04:25:32;3.50;;;2.20;;
65535;SDS011;52145;49.342;9.116;2022-08-03T04:28:00;4.68;;;2.40;;
65535;SDS011;52145;49.342;9.116;2022-08-03T04:30:26;3.38;;;2.35;;
65535;SDS011;52145;49.342;9.116;2022-08-03T04:32:56;3.60;;;2.50;;
65535;SDS011;52145;49.342;9.116;2022-08-03T04:35:23;3.30;;;2.55;;
65535;SDS011;52145;49.342;9.116;2022-08-03T04:37:52;3.75;;;2.60;;
65535;SDS011;52145;49.342;9.116;2022-08-03T04:40:29;3.10;;;2.80;;
65535;SDS011;52145;49.342;9.116;2022-08-03T04:42:57;4.65;;;2.30;;
65535;SDS011;52145;49.342;9.116;2022-08-03T04:45:23;4.65;;;2.95;;
65535;SDS011;52145;49.342;9.116;2022-08-03T04:47:51;3.72;;;2.47;;
65535;SDS011;52145;49.342;9.116;2022-08-03T04:50:17;5.25;;;2.20;;
65535;SDS011;52145;49.342;9.116;2022-08-03T04:52:43;3.53;;;2.60;;
65535;SDS011;52145;49.342;9.116;2022-08-03T04:55:09;4.40;;;2.20;;
65535;SDS011;52145;49.342;9.116;2022-08-03T04:57:34;3.83;;;2.10;;
65535;SDS011;52145;49.342;9.116;2022-08-03T05:00:00;4.65;;;2.30;;
65535;SDS011;52145;49.342;9.116;2022-08-03T05:02:26;4.13;;;2.30;;
65535;SDS011;52145;49.342;9.116;2022-08-03T05:04:52;2.90;;;2.13;;
65535;SDS011;52145;49.342;9.116;2022-08-03T05:07:18;5.10;;;2.42;;
65535;SDS011;52145;49.342;9.116;2022-08-03T05:09:43;2.97;;;2.25;;
65535;SDS011;52145;49.342;9.116;2022-08-03T05:12:09;5.35;;;2.92;;
65535;SDS011;52145;49.342;9.116;2022-08-03T05:14:35;4.82;;;2.38;;
65535;SDS011;52145;49.342;9.116;2022-08-03T05:17:06;4.95;;;2.40;;
65535;SDS011;52145;49.342;9.116;2022-08-03T05:19:32;5.35;;;2.47;;
65535;SDS011;52145;49.342;9.116;2022-08-03T05:21:58;6.60;;;2.40;;
65535;SDS011;52145;49.342;9.116;2022-08-03T05:24:24;4.63;;;2.05;;
65535;SDS011;52145;49.342;9.116;2022-08-03T05:26:50;5.72;;;2.80;;
65535;SDS011;52145;49.342;9.116;2022-08-03T05:29:15;5.05;;;2.50;;
65535;SDS011;52145;49.342;9.116;2022-08-03T05:31:41;4.10;;;2.63;;
65535;SDS011;52145;49.342;9.116;2022-08-03T05:34:06;3.08;;;2.40;;
65535;SDS011;52145;49.342;9.116;2022-08-03T05:36:32;4.60;;;2.45;;
65535;SDS011;52145;49.342;9.116;2022-08-03T05:38:57;4.78;;;2.45;;
65535;SDS011;52145;49.342;9.116;2022-08-03T05:41:23;3.50;;;2.25;;
65535;SDS011;52145;49.342;9.116;2022-08-03T05:43:49;5.57;;;1.90;;
65535;SDS011;52145;49.342;9.116;2022-08-03T05:46:19;6.95;;;2.10;;
65535;SDS011;52145;49.342;9.116;2022-08-03T05:48:45;4.10;;;2.10;;
65535;SDS011;52145;49.342;9.116;2022-08-03T05:51:11;3.83;;;2.30;;
65535;SDS011;52145;49.342;9.116;2022-08-03T05:53:37;3.78;;;2.20;;
65535;SDS011;52145;49.342;9.116;2022-08-03T05:56:03;4.18;;;2.38;;
65535;SDS011;52145;49.342;9.116;2022-08-03T05:58:29;6.53;;;2.13;;
65535;SDS011;52145;49.342;9.116;2022-08-03T06:00:55;2.38;;;2.00;;
65535;SDS011;52145;49.342;9.116;2022-08-03T06:03:20;2.90;;;2.20;;
65535;SDS011;52145;49.342;9.116;2022-08-03T06:05:46;3.83;;;2.33;;
65535;SDS011;52145;49.342;9.116;2022-08-03T06:08:11;7.40;;;2.40;;
65535;SDS011;52145;49.342;9.116;2022-08-03T06:10:37;4.97;;;2.28;;
65535;SDS011;52145;49.342;9.116;2022-08-03T06:13:03;4.40;;;2.50;;
65535;SDS011;52145;49.342;9.116;2022-08-03T06:15:28;5.50;;;2.50;;
65535;SDS011;52145;49.342;9.116;2022-08-03T06:17:57;3.15;;;2.00;;
65535;SDS011;52145;49.342;9.116;2022-08-03T06:20:22;5.35;;;2.50;;
65535;SDS011;52145;49.342;9.116;2022-08-03T06:22:48;7.38;;;2.20;;
65535;SDS011;52145;49.342;9.116;2022-08-03T06:25:14;4.82;;;2.40;;
65535;SDS011;52145;49.342;9.116;2022-08-03T06:27:40;9.38;;;2.38;;
65535;SDS011;52145;49.342;9.116;2022-08-03T06:30:06;5.10;;;2.60;;
65535;SDS011;52145;49.342;9.116;2022-08-03T06:32:34;6.35;;;2.00;;
65535;SDS011;52145;49.342;9.116;2022-08-03T06:35:05;6.47;;;2.30;;
65535;SDS011;52145;49.342;9.116;2022-08-03T06:37:40;4.80;;;2.00;;
65535;SDS011;52145;49.342;9.116;2022-08-03T06:40:10;4.28;;;2.40;;
65535;SDS011;52145;49.342;9.116;2022-08-03T06:42:40;4.53;;;2.03;;
65535;SDS011;52145;49.342;9.116;2022-08-03T06:45:06;5.10;;;2.40;;
65535;SDS011;52145;49.342;9.116;2022-08-03T06:47:36;4.15;;;2.15;;
65535;SDS011;52145;49.342;9.116;2022-08-03T06:50:03;5.53;;;2.17;;
65535;SDS011;52145;49.342;9.116;2022-08-03T06:52:33;4.45;;;2.05;;
65535;SDS011;52145;49.342;9.116;2022-08-03T06:54:59;3.97;;;1.92;;
65535;SDS011;52145;49.342;9.116;2022-08-03T06:57:24;4.90;;;2.45;;
65535;SDS011;52145;49.342;9.116;2022-08-03T06:59:50;5.22;;;2.20;;
65535;SDS011;52145;49.342;9.116;2022-08-03T07:02:16;3.70;;;2.70;;
65535;SDS011;52145;49.342;9.116;2022-08-03T07:04:45;4.03;;;2.20;;
65535;SDS011;52145;49.342;9.116;2022-08-03T07:07:14;5.30;;;1.90;;
65535;SDS011;52145;49.342;9.116;2022-08-03T07:09:39;3.13;;;1.98;;
65535;SDS011;52145;49.342;9.116;2022-08-03T07:12:05;4.50;;;1.58;;
65535;SDS011;52145;49.342;9.116;2022-08-03T07:14:30;3.58;;;1.90;;
65535;SDS011;52145;49.342;9.116;2022-08-03T07:16:56;5.00;;;2.35;;
65535;SDS011;52145;49.342;9.116;2022-08-03T07:19:21;5.22;;;2.17;;
65535;SDS011;52145;49.342;9.116;2022-08-03T07:21:47;2.88;;;1.70;;
65535;SDS011;52145;49.342;9.116;2022-08-03T07:24:13;3.45;;;2.03;;
65535;SDS011;52145;49.342;9.116;2022-08-03T07:26:38;5.78;;;2.00;;
65535;SDS011;52145;49.342;9.116;2022-08-03T07:29:04;5.18;;;1.75;;
65535;SDS011;52145;49.342;9.116;2022-08-03T07:31:29;4.28;;;1.80;;
65535;SDS011;52145;49.342;9.116;2022-08-03T07:33:55;6.68;;;2.33;;
65535;SDS011;52145;49.342;9.116;2022-08-03T07:36:21;5.00;;;2.15;;
65535;SDS011;52145;49.342;9.116;2022-08-03T07:38:46;4.22;;;2.20;;
65535;SDS011;52145;49.342;9.116;2022-08-03T07:41:12;4.63;;;2.10;;
65535;SDS011;52145;49.342;9.116;2022-08-03T07:43:38;2.58;;;1.77;;
65535;SDS011;52145;49.342;9.116;2022-08-03T07:46:03;4.03;;;1.70;;
65535;SDS011;52145;49.342;9.116;2022-08-03T07:48:29;2.67;;;1.80;;
65535;SDS011;52145;49.342;9.116;2022-08-03T07:50:54;3.55;;;1.90;;
65535;SDS011;52145;49.342;9.116;2022-08-03T07:53:20;3.10;;;1.80;;
65535;SDS011;52145;49.342;9.116;2022-08-03T07:55:45;3.95;;;2.03;;
65535;SDS011;52145;49.342;9.116;2022-08-03T07:58:11;4.70;;;1.80;;
65535;SDS011;52145;49.342;9.116;2022-08-03T08:00:40;3.80;;;2.17;;
65535;SDS011;52145;49.342;9.116;2022-08-03T08:03:06;5.35;;;1.50;;
65535;SDS011;52145;49.342;9.116;2022-08-03T08:05:32;3.33;;;2.10;;
65535;SDS011;52145;49.342;9.116;2022-08-03T08:07:58;3.53;;;1.92;;
65535;SDS011;52145;49.342;9.116;2022-08-03T08:10:24;4.03;;;1.70;;
65535;SDS011;52145;49.342;9.116;2022-08-03T08:12:51;2.47;;;1.75;;
65535;SDS011;52145;49.342;9.116;2022-08-03T08:15:16;4.72;;;1.90;;
65535;SDS011;52145;49.342;9.116;2022-08-03T08:20:20;6.95;;;2.42;;
65535;SDS011;52145;49.342;9.116;2022-08-03T08:22:47;4.80;;;1.85;;
65535;SDS011;52145;49.342;9.116;2022-08-03T08:25:13;3.40;;;1.92;;
65535;SDS011;52145;49.342;9.116;2022-08-03T08:27:42;2.60;;;1.77;;
65535;SDS011;52145;49.342;9.116;2022-08-03T08:30:12;6.38;;;1.75;;
65535;SDS011;52145;49.342;9.116;2022-08-03T08:32:40;5.53;;;1.75;;
65535;SDS011;52145;49.342;9.116;2022-08-03T08:35:06;2.53;;;1.52;;
65535;SDS011;52145;49.342;9.116;2022-08-03T08:37:32;5.80;;;1.80;;
65535;SDS011;52145;49.342;9.116;2022-08-03T08:39:58;6.60;;;1.63;;
65535;SDS011;52145;49.342;9.116;2022-08-03T08:42:24;2.38;;;1.45;;
65535;SDS011;52145;49.342;9.116;2022-08-03T08:44:50;4.30;;;2.05;;
65535;SDS011;52145;49.342;9.116;2022-08-03T08:47:17;2.38;;;1.60;;
65535;SDS011;52145;49.342;9.116;2022-08-03T08:49:45;4.75;;;1.80;;
65535;SDS011;52145;49.342;9.116;2022-08-03T08:52:12;2.88;;;1.60;;
65535;SDS011;52145;49.342;9.116;2022-08-03T08:54:38;4.40;;;1.85;;
65535;SDS011;52145;49.342;9.116;2022-08-03T08:57:05;4.88;;;1.92;;
65535;SDS011;52145;49.342;9.116;2022-08-03T08:59:33;4.28;;;1.83;;
65535;SDS011;52145;49.342;9.116;2022-08-03T09:01:59;2.95;;;1.25;;
65535;SDS011;52145;49.342;9.116;2022-08-03T09:04:26;4.20;;;1.48;;
65535;SDS011;52145;49.342;9.116;2022-08-03T09:06:53;3.75;;;1.67;;
65535;SDS011;52145;49.342;9.116;2022-08-03T09:09:19;4.47;;;1.80;;
65535;SDS011;52145;49.342;9.116;2022-08-03T09:11:44;4.63;;;1.85;;
65535;SDS011;52145;49.342;9.116;2022-08-03T09:14:12;4.90;;;1.27;;
65535;SDS011;52145;49.342;9.116;2022-08-03T09:16:38;6.25;;;1.80;;
65535;SDS011;52145;49.342;9.116;2022-08-03T09:19:26;6.40;;;1.58;;
65535;SDS011;52145;49.342;9.116;2022-08-03T09:22:12;5.22;;;1.70;;
65535;SDS011;52145;49.342;9.116;2022-08-03T09:25:03;2.28;;;1.27;;
65535;SDS011;52145;49.342;9.116;2022-08-03T09:27:28;5.72;;;1.50;;
65535;SDS011;52145;49.342;9.116;2022-08-03T09:30:05;3.58;;;1.40;;
65535;SDS011;52145;49.342;9.116;2022-08-03T09:32:40;1.70;;;1.50;;
65535;SDS011;52145;49.342;9.116;2022-08-03T09:35:08;2.70;;;1.55;;
65535;SDS011;52145;49.342;9.116;2022-08-03T09:37:35;1.73;;;1.30;;
65535;SDS011;52145;49.342;9.116;2022-08-03T09:40:00;2.10;;;1.50;;
65535;SDS011;52145;49.342;9.116;2022-08-03T09:42:26;2.15;;;1.40;;
65535;SDS011;52145;49.342;9.116;2022-08-03T09:44:52;2.22;;;1.42;;
65535;SDS011;52145;49.342;9.116;2022-08-03T09:47:28;2.17;;;1.33;;
65535;SDS011;52145;49.342;9.116;2022-08-03T09:49:59;2.53;;;1.38;;
65535;SDS011;52145;49.342;9.116;2022-08-03T09:52:30;1.40;;;1.15;;
65535;SDS011;52145;49.342;9.116;2022-08-03T09:54:57;3.63;;;1.30;;
65535;SDS011;52145;49.342;9.116;2022-08-03T09:57:25;3.00;;;1.38;;
65535;SDS011;52145;49.342;9.116;2022-08-03T09:59:51;3.25;;;1.40;;
65535;SDS011;52145;49.342;9.116;2022-08-03T10:02:25;3.95;;;1.65;;
65535;SDS011;52145;49.342;9.116;2022-08-03T10:04:51;2.92;;;1.33;;
65535;SDS011;52145;49.342;9.116;2022-08-03T10:07:21;2.25;;;1.30;;
65535;SDS011;52145;49.342;9.116;2022-08-03T10:09:56;3.17;;;1.67;;
65535;SDS011;52145;49.342;9.116;2022-08-03T10:12:22;2.17;;;1.42;;
65535;SDS011;52145;49.342;9.116;2022-08-03T10:14:49;3.47;;;1.50;;
65535;SDS011;52145;49.342;9.116;2022-08-03T10:17:16;1.52;;;1.33;;
65535;SDS011;52145;49.342;9.116;2022-08-03T10:19:42;1.88;;;1.35;;
65535;SDS011;52145;49.342;9.116;2022-08-03T10:22:21;3.90;;;1.40;;
65535;SDS011;52145;49.342;9.116;2022-08-03T10:25:07;3.85;;;1.80;;
65535;SDS011;52145;49.342;9.116;2022-08-03T10:27:35;4.47;;;1.55;;
65535;SDS011;52145;49.342;9.116;2022-08-03T10:30:09;4.10;;;1.75;;
65535;SDS011;52145;49.342;9.116;2022-08-03T10:35:12;2.72;;;1.70;;
65535;SDS011;52145;49.342;9.116;2022-08-03T10:37:41;1.67;;;1.23;;
65535;SDS011;52145;49.342;9.116;2022-08-03T10:40:11;3.03;;;1.70;;
65535;SDS011;52145;49.342;9.116;2022-08-03T10:42:39;2.50;;;1.63;;
65535;SDS011;52145;49.342;9.116;2022-08-03T10:45:17;3.67;;;2.03;;
65535;SDS011;52145;49.342;9.116;2022-08-03T10:47:45;4.15;;;1.70;;
65535;SDS011;52145;49.342;9.116;2022-08-03T10:50:12;2.60;;;1.70;;
65535;SDS011;52145;49.342;9.116;2022-08-03T10:52:57;5.80;;;1.80;;
65535;SDS011;52145;49.342;9.116;2022-08-03T10:55:44;3.35;;;1.52;;
65535;SDS011;52145;49.342;9.116;2022-08-03T11:01:00;3.47;;;1.85;;
65535;SDS011;52145;49.342;9.116;2022-08-03T11:03:27;3.42;;;1.80;;
65535;SDS011;52145;49.342;9.116;2022-08-03T11:05:52;2.63;;;1.48;;
65535;SDS011;52145;49.342;9.116;2022-08-03T11:08:40;3.10;;;1.27;;
65535;SDS011;52145;49.342;9.116;2022-08-03T11:14:00;5.25;;;1.75;;
65535;SDS011;52145;49.342;9.116;2022-08-03T11:16:33;3.42;;;1.63;;
65535;SDS011;52145;49.342;9.116;2022-08-03T11:19:04;4.10;;;1.45;;
65535;SDS011;52145;49.342;9.116;2022-08-03T11:29:55;2.55;;;1.35;;
65535;SDS011;52145;49.342;9.116;2022-08-03T11:37:35;2.70;;;1.80;;
65535;SDS011;52145;49.342;9.116;2022-08-03T11:42:58;3.15;;;1.60;;
65535;SDS011;52145;49.342;9.116;2022-08-03T11:45:24;3.92;;;1.58;;
65535;SDS011;52145;49.342;9.116;2022-08-03T11:47:51;2.55;;;1.52;;
65535;SDS011;52145;49.342;9.116;2022-08-03T11:50:19;3.17;;;1.50;;
65535;SDS011;52145;49.342;9.116;2022-08-03T11:52:45;2.10;;;1.50;;
65535;SDS011;52145;49.342;9.116;2022-08-03T11:55:12;1.55;;;1.35;;
65535;SDS011;52145;49.342;9.116;2022-08-03T11:57:39;1.95;;;1.40;;
65535;SDS011;52145;49.342;9.116;2022-08-03T12:02:55;2.17;;;1.55;;
65535;SDS011;52145;49.342;9.116;2022-08-03T12:05:20;2.22;;;1.20;;
65535;SDS011;52145;49.342;9.116;2022-08-03T12:07:56;1.67;;;1.23;;
65535;SDS011;52145;49.342;9.116;2022-08-03T12:10:21;2.45;;;1.80;;
65535;SDS011;52145;49.342;9.116;2022-08-03T12:12:53;3.05;;;1.30;;
65535;SDS011;52145;49.342;9.116;2022-08-03T12:15:30;1.40;;;1.30;;
65535;SDS011;52145;49.342;9.116;2022-08-03T12:17:59;1.58;;;1.10;;
65535;SDS011;52145;49.342;9.116;2022-08-03T12:20:30;3.03;;;1.45;;
65535;SDS011;52145;49.342;9.116;2022-08-03T12:23:03;2.47;;;1.30;;
65535;SDS011;52145;49.342;9.116;2022-08-03T12:25:30;2.58;;;1.17;;
65535;SDS011;52145;49.342;9.116;2022-08-03T12:28:07;3.00;;;1.42;;
65535;SDS011;52145;49.342;9.116;2022-08-03T12:30:40;2.72;;;1.40;;
65535;SDS011;52145;49.342;9.116;2022-08-03T12:33:18;3.25;;;1.67;;
65535;SDS011;52145;49.342;9.116;2022-08-03T12:35:46;3.15;;;1.35;;
65535;SDS011;52145;49.342;9.116;2022-08-03T12:38:17;2.00;;;1.42;;
65535;SDS011;52145;49.342;9.116;2022-08-03T12:40:44;2.05;;;1.45;;
65535;SDS011;52145;49.342;9.116;2022-08-03T12:45:44;3.05;;;1.30;;
65535;SDS011;52145;49.342;9.116;2022-08-03T12:48:09;2.45;;;1.17;;
65535;SDS011;52145;49.342;9.116;2022-08-03T12:50:36;1.88;;;1.40;;
65535;SDS011;52145;49.342;9.116;2022-08-03T12:53:04;3.00;;;1.40;;
65535;SDS011;52145;49.342;9.116;2022-08-03T12:55:30;1.92;;;1.35;;
65535;SDS011;52145;49.342;9.116;2022-08-03T12:58:00;2.67;;;1.50;;
65535;SDS011;52145;49.342;9.116;2022-08-03T13:00:30;3.20;;;1.48;;
65535;SDS011;52145;49.342;9.116;2022-08-03T13:03:01;1.83;;;1.25;;
65535;SDS011;52145;49.342;9.116;2022-08-03T13:05:30;3.40;;;1.13;;
65535;SDS011;52145;49.342;9.116;2022-08-03T13:07:56;1.67;;;1.20;;
65535;SDS011;52145;49.342;9.116;2022-08-03T13:10:29;1.90;;;1.38;;
65535;SDS011;52145;49.342;9.116;2022-08-03T13:12:56;1.45;;;1.20;;
65535;SDS011;52145;49.342;9.116;2022-08-03T13:15:27;2.92;;;1.35;;
65535;SDS011;52145;49.342;9.116;2022-08-03T13:17:56;2.88;;;1.27;;
65535;SDS011;52145;49.342;9.116;2022-08-03T13:20:22;2.45;;;1.42;;
65535;SDS011;52145;49.342;9.116;2022-08-03T13:22:48;2.08;;;1.05;;
65535;SDS011;52145;49.342;9.116;2022-08-03T13:25:15;3.83;;;1.40;;
65535;SDS011;52145;49.342;9.116;2022-08-03T13:27:41;1.67;;;1.20;;
65535;SDS011;52145;49.342;9.116;2022-08-03T13:30:07;4.13;;;1.33;;
65535;SDS011;52145;49.342;9.116;2022-08-03T13:32:34;1.35;;;1.25;;
65535;SDS011;52145;49.342;9.116;2022-08-03T13:35:00;1.92;;;1.40;;
65535;SDS011;52145;49.342;9.116;2022-08-03T13:37:26;2.40;;;1.40;;
65535;SDS011;52145;49.342;9.116;2022-08-03T13:39:53;1.75;;;1.27;;
65535;SDS011;52145;49.342;9.116;2022-08-03T13:42:19;1.90;;;1.40;;
65535;SDS011;52145;49.342;9.116;2022-08-03T13:44:44;2.15;;;1.38;;
65535;SDS011;52145;49.342;9.116;2022-08-03T13:47:10;2.63;;;1.40;;
65535;SDS011;52145;49.342;9.116;2022-08-03T13:49:36;2.10;;;1.30;;
65535;SDS011;52145;49.342;9.116;2022-08-03T13:52:01;4.40;;;1.38;;
65535;SDS011;52145;49.342;9.116;2022-08-03T13:54:27;2.35;;;1.20;;
65535;SDS011;52145;49.342;9.116;2022-08-03T13:56:54;1.90;;;1.30;;
65535;SDS011;52145;49.342;9.116;2022-08-03T13:59:22;1.95;;;1.52;;
65535;SDS011;52145;49.342;9.116;2022-08-03T14:01:50;2.30;;;1.50;;
65535;SDS011;52145;49.342;9.116;2022-08-03T14:04:16;5.68;;;1.70;;
65535;SDS011;52145;49.342;9.116;2022-08-03T14:06:42;1.88;;;1.40;;
65535;SDS011;52145;49.342;9.116;2022-08-03T14:09:09;3.83;;;1.50;;
65535;SDS011;52145;49.342;9.116;2022-08-03T14:11:35;1.70;;;1.35;;
65535;SDS011;52145;49.342;9.116;2022-08-03T14:14:01;3.28;;;1.50;;
65535;SDS011;52145;49.342;9.116;2022-08-03T14:16:26;1.90;;;1.48;;
65535;SDS011;52145;49.342;9.116;2022-08-03T14:18:52;2.60;;;1.10;;
65535;SDS011;52145;49.342;9.116;2022-08-03T14:21:17;1.58;;;1.30;;
65535;SDS011;52145;49.342;9.116;2022-08-03T14:23:43;1.60;;;1.48;;
65535;SDS011;52145;49.342;9.116;2022-08-03T14:26:08;1.55;;;1.38;;
65535;SDS011;52145;49.342;9.116;2022-08-03T14:28:35;1.80;;;1.60;;
65535;SDS011;52145;49.342;9.116;2022-08-03T14:31:01;2.83;;;1.58;;
65535;SDS011;52145;49.342;9.116;2022-08-03T14:33:27;2.08;;;1.42;;
65535;SDS011;52145;49.342;9.116;2022-08-03T14:35:53;2.35;;;1.30;;
65535;SDS011;52145;49.342;9.116;2022-08-03T14:38:19;2.95;;;1.38;;
65535;SDS011;52145;49.342;9.116;2022-08-03T14:40:46;3.65;;;1.63;;
65535;SDS011;52145;49.342;9.116;2022-08-03T14:43:12;1.70;;;1.50;;
65535;SDS011;52145;49.342;9.116;2022-08-03T14:45:38;2.70;;;1.30;;
65535;SDS011;52145;49.342;9.116;2022-08-03T14:48:04;1.42;;;1.20;;
65535;SDS011;52145;49.342;9.116;2022-08-03T14:50:30;1.50;;;1.40;;
65535;SDS011;52145;49.342;9.116;2022-08-03T14:52:55;2.55;;;1.50;;
65535;SDS011;52145;49.342;9.116;2022-08-03T14:55:21;1.77;;;1.40;;
65535;SDS011;52145;49.342;9.116;2022-08-03T14:57:47;2.72;;;1.48;;
65535;SDS011;52145;49.342;9.116;2022-08-03T15:00:13;4.20;;;1.33;;
65535;SDS011;52145;49.342;9.116;2022-08-03T15:02:39;2.55;;;1.33;;
65535;SDS011;52145;49.342;9.116;2022-08-03T15:05:05;3.15;;;1.30;;
65535;SDS011;52145;49.342;9.116;2022-08-03T15:07:31;3.28;;;1.70;;
65535;SDS011;52145;49.342;9.116;2022-08-03T15:09:56;1.83;;;1.55;;
65535;SDS011;52145;49.342;9.116;2022-08-03T15:12:23;2.85;;;1.42;;
65535;SDS011;52145;49.342;9.116;2022-08-03T15:14:49;3.58;;;1.33;;
65535;SDS011;52145;49.342;9.116;2022-08-03T15:17:15;3.10;;;1.60;;
65535;SDS011;52145;49.342;9.116;2022-08-03T15:19:40;2.10;;;1.35;;
65535;SDS011;52145;49.342;9.116;2022-08-03T15:22:06;3.40;;;1.48;;
65535;SDS011;52145;49.342;9.116;2022-08-03T15:24:31;2.08;;;1.20;;
65535;SDS011;52145;49.342;9.116;2022-08-03T15:26:57;2.95;;;1.48;;
65535;SDS011;52145;49.342;9.116;2022-08-03T15:29:23;5.55;;;1.83;;
65535;SDS011;52145;49.342;9.116;2022-08-03T15:31:48;4.20;;;1.67;;
65535;SDS011;52145;49.342;9.116;2022-08-03T15:34:14;2.78;;;1.33;;
65535;SDS011;52145;49.342;9.116;2022-08-03T15:36:39;5.07;;;1.80;;